sensor_id;sensor_type;location;lat;lon;timestamp;pressure;altitude;pressure_sealevel;temperature;humidity
15195;BME280;7698;42.478;23.756;2023-02-18T00:00:56;94026.75;;;3.79;65.08
15195;BME280;7698;42.478;23.756;2023-02-18T00:03:23;94021.00;;;3.76;65.37
15195;BME280;7698;42.478;23.756;2023-02-18T00:05:50;94020.34;;;3.73;65.37
15195;BME280;7698;42.478;23.756;2023-02-18T00:08:18;94032.09;;;3.71;65.26
15195;BME280;7698;42.478;23.756;2023-02-18T00:10:44;94017.44;;;3.68;65.26
15195;BME280;7698;42.478;23.756;2023-02-18T00:13:13;94019.06;;;3.69;65.44
15195;BME280;7698;42.478;23.756;2023-02-18T00:15:39;94018.25;;;3.69;65.39
15195;BME280;7698;42.478;23.756;2023-02-18T00:18:06;94022.72;;;3.68;65.35
15195;BME280;7698;42.478;23.756;2023-02-18T00:20:33;94022.06;;;3.66;65.28
15195;BME280;7698;42.478;23.756;2023-02-18T00:23:01;94014.13;;;3.66;65.77
15195;BME280;7698;42.478;23.756;2023-02-18T00:25:28;94005.69;;;3.71;65.34
15195;BME280;7698;42.478;23.756;2023-02-18T00:27:55;94007.78;;;3.76;65.36
15195;BME280;7698;42.478;23.756;2023-02-18T00:30:23;93998.88;;;3.77;65.17
15195;BME280;7698;42.478;23.756;2023-02-18T00:32:50;93984.66;;;3.78;64.92
15195;BME280;7698;42.478;23.756;2023-02-18T00:35:16;93986.47;;;3.77;64.91
15195;BME280;7698;42.478;23.756;2023-02-18T00:37:43;93987.31;;;3.78;64.65
15195;BME280;7698;42.478;23.756;2023-02-18T00:40:10;93977.28;;;3.73;64.05
15195;BME280;7698;42.478;23.756;2023-02-18T00:42:37;93972.72;;;3.67;64.16
15195;BME280;7698;42.478;23.756;2023-02-18T00:45:05;93960.03;;;3.62;64.25
15195;BME280;7698;42.478;23.756;2023-02-18T00:47:33;93954.06;;;3.54;64.28
15195;BME280;7698;42.478;23.756;2023-02-18T00:50:00;93938.75;;;3.49;64.57
15195;BME280;7698;42.478;23.756;2023-02-18T00:52:27;93941.38;;;3.49;64.95
15195;BME280;7698;42.478;23.756;2023-02-18T00:54:53;93939.03;;;3.54;64.51
15195;BME280;7698;42.478;23.756;2023-02-18T00:57:20;93936.66;;;3.59;63.96
15195;BME280;7698;42.478;23.756;2023-02-18T00:59:47;93938.94;;;3.62;63.54
15195;BME280;7698;42.478;23.756;2023-02-18T01:02:14;93928.19;;;3.64;63.16
15195;BME280;7698;42.478;23.756;2023-02-18T01:04:42;93927.81;;;3.67;63.64
15195;BME280;7698;42.478;23.756;2023-02-18T01:07:09;93916.34;;;3.74;62.96
15195;BME280;7698;42.478;23.756;2023-02-18T01:09:36;93918.91;;;3.83;63.31
15195;BME280;7698;42.478;23.756;2023-02-18T01:12:03;93915.78;;;3.94;62.90
15195;BME280;7698;42.478;23.756;2023-02-18T01:14:30;93916.97;;;4.06;62.70
15195;BME280;7698;42.478;23.756;2023-02-18T01:16:57;93910.34;;;4.17;62.49
15195;BME280;7698;42.478;23.756;2023-02-18T01:19:24;93904.78;;;4.26;61.83
15195;BME280;7698;42.478;23.756;2023-02-18T01:21:52;93911.59;;;4.35;61.85
15195;BME280;7698;42.478;23.756;2023-02-18T01:24:19;93914.75;;;4.46;61.15
15195;BME280;7698;42.478;23.756;2023-02-18T01:26:46;93906.72;;;4.54;61.02
15195;BME280;7698;42.478;23.756;2023-02-18T01:29:13;93905.78;;;4.61;60.09
15195;BME280;7698;42.478;23.756;2023-02-18T01:31:40;93911.28;;;4.66;59.86
15195;BME280;7698;42.478;23.756;2023-02-18T01:34:06;93904.25;;;4.73;59.48
15195;BME280;7698;42.478;23.756;2023-02-18T01:36:33;93906.31;;;4.78;59.06
15195;BME280;7698;42.478;23.756;2023-02-18T01:39:02;93895.38;;;4.81;58.97
15195;BME280;7698;42.478;23.756;2023-02-18T01:41:30;93906.97;;;4.80;59.21
15195;BME280;7698;42.478;23.756;2023-02-18T01:44:10;93909.16;;;4.76;58.74
15195;BME280;7698;42.478;23.756;2023-02-18T01:46:37;93900.78;;;4.73;59.06
15195;BME280;7698;42.478;23.756;2023-02-18T01:49:04;93902.59;;;4.72;59.25
15195;BME280;7698;42.478;23.756;2023-02-18T01:51:35;93902.69;;;4.79;59.15
15195;BME280;7698;42.478;23.756;2023-02-18T01:54:07;93903.13;;;4.83;58.94
15195;BME280;7698;42.478;23.756;2023-02-18T01:56:38;93906.41;;;4.85;58.90
15195;BME280;7698;42.478;23.756;2023-02-18T01:59:10;93913.31;;;4.86;58.96
15195;BME280;7698;42.478;23.756;2023-02-18T02:01:40;93918.81;;;4.84;58.78
15195;BME280;7698;42.478;23.756;2023-02-18T02:04:07;93918.81;;;4.84;58.78
15195;BME280;7698;42.478;23.756;2023-02-18T02:06:34;93916.78;;;4.86;58.79
15195;BME280;7698;42.478;23.756;2023-02-18T02:09:05;93923.34;;;4.90;58.71
15195;BME280;7698;42.478;23.756;2023-02-18T02:11:44;93920.94;;;4.95;58.77
15195;BME280;7698;42.478;23.756;2023-02-18T02:14:24;93914.63;;;4.96;58.52
15195;BME280;7698;42.478;23.756;2023-02-18T02:17:01;93919.91;;;4.96;58.77
15195;BME280;7698;42.478;23.756;2023-02-18T02:19:48;93928.50;;;4.98;58.99
15195;BME280;7698;42.478;23.756;2023-02-18T02:22:55;93930.94;;;5.00;58.59
15195;BME280;7698;42.478;23.756;2023-02-18T02:28:44;93936.44;;;4.98;58.84
15195;BME280;7698;42.478;23.756;2023-02-18T02:31:56;93933.97;;;4.97;58.83
15195;BME280;7698;42.478;23.756;2023-02-18T02:34:38;93936.81;;;4.95;59.16
15195;BME280;7698;42.478;23.756;2023-02-18T02:37:14;93932.91;;;4.91;59.01
15195;BME280;7698;42.478;23.756;2023-02-18T02:39:50;93928.63;;;4.90;59.10
15195;BME280;7698;42.478;23.756;2023-02-18T02:42:28;93928.19;;;4.87;59.18
15195;BME280;7698;42.478;23.756;2023-02-18T02:45:03;93921.25;;;4.86;59.55
15195;BME280;7698;42.478;23.756;2023-02-18T02:47:37;93922.09;;;4.86;59.68
15195;BME280;7698;42.478;23.756;2023-02-18T02:50:09;93929.19;;;4.86;59.41
15195;BME280;7698;42.478;23.756;2023-02-18T02:52:43;93926.75;;;4.84;59.53
15195;BME280;7698;42.478;23.756;2023-02-18T02:55:11;93929.56;;;4.83;59.54
15195;BME280;7698;42.478;23.756;2023-02-18T02:57:44;93930.41;;;4.83;59.89
15195;BME280;7698;42.478;23.756;2023-02-18T03:00:13;93929.56;;;4.83;59.77
15195;BME280;7698;42.478;23.756;2023-02-18T03:02:52;93919.56;;;4.78;59.48
15195;BME280;7698;42.478;23.756;2023-02-18T03:05:32;93919.13;;;4.74;59.87
15195;BME280;7698;42.478;23.756;2023-02-18T03:08:17;93925.41;;;4.73;59.69
15195;BME280;7698;42.478;23.756;2023-02-18T03:10:54;93921.94;;;4.73;59.94
15195;BME280;7698;42.478;23.756;2023-02-18T03:13:37;93922.56;;;4.75;59.99
15195;BME280;7698;42.478;23.756;2023-02-18T03:16:13;93920.50;;;4.70;59.79
15195;BME280;7698;42.478;23.756;2023-02-18T03:18:47;93919.44;;;4.65;59.93
15195;BME280;7698;42.478;23.756;2023-02-18T03:21:19;93909.59;;;4.59;60.01
15195;BME280;7698;42.478;23.756;2023-02-18T03:23:53;93920.94;;;4.53;60.36
15195;BME280;7698;42.478;23.756;2023-02-18T03:26:23;93914.38;;;4.49;60.36
15195;BME280;7698;42.478;23.756;2023-02-18T03:28:52;93919.66;;;4.49;60.48
15195;BME280;7698;42.478;23.756;2023-02-18T03:31:22;93920.03;;;4.46;60.73
15195;BME280;7698;42.478;23.756;2023-02-18T03:33:54;93922.69;;;4.46;60.76
15195;BME280;7698;42.478;23.756;2023-02-18T03:36:23;93932.00;;;4.41;60.76
15195;BME280;7698;42.478;23.756;2023-02-18T03:38:54;93940.09;;;4.40;60.90
15195;BME280;7698;42.478;23.756;2023-02-18T03:41:22;93935.00;;;4.38;61.23
15195;BME280;7698;42.478;23.756;2023-02-18T03:43:49;93947.84;;;4.41;61.21
15195;BME280;7698;42.478;23.756;2023-02-18T03:46:16;93951.31;;;4.42;61.29
15195;BME280;7698;42.478;23.756;2023-02-18T03:48:43;93957.41;;;4.42;61.34
15195;BME280;7698;42.478;23.756;2023-02-18T03:51:10;93959.88;;;4.44;61.36
15195;BME280;7698;42.478;23.756;2023-02-18T03:53:39;93960.69;;;4.45;61.39
15195;BME280;7698;42.478;23.756;2023-02-18T03:56:06;93963.34;;;4.45;61.13
15195;BME280;7698;42.478;23.756;2023-02-18T03:58:33;93970.47;;;4.44;60.84
15195;BME280;7698;42.478;23.756;2023-02-18T04:01:00;93977.94;;;4.40;61.29
15195;BME280;7698;42.478;23.756;2023-02-18T04:03:27;93977.31;;;4.38;61.48
15195;BME280;7698;42.478;23.756;2023-02-18T04:05:53;93972.41;;;4.35;61.52
15195;BME280;7698;42.478;23.756;2023-02-18T04:08:20;93974.59;;;4.32;61.76
15195;BME280;7698;42.478;23.756;2023-02-18T04:10:49;93973.50;;;4.26;61.93
15195;BME280;7698;42.478;23.756;2023-02-18T04:13:16;93974.25;;;4.20;62.15
15195;BME280;7698;42.478;23.756;2023-02-18T04:15:43;93976.44;;;4.17;62.34
15195;BME280;7698;42.478;23.756;2023-02-18T04:18:10;93981.25;;;4.13;62.50
15195;BME280;7698;42.478;23.756;2023-02-18T04:20:37;93983.09;;;4.13;62.91
15195;BME280;7698;42.478;23.756;2023-02-18T04:23:04;93970.06;;;4.11;62.80
15195;BME280;7698;42.478;23.756;2023-02-18T04:25:31;93967.41;;;4.11;62.96
15195;BME280;7698;42.478;23.756;2023-02-18T04:27:59;93960.69;;;4.08;63.12
15195;BME280;7698;42.478;23.756;2023-02-18T04:30:26;93957.22;;;4.08;63.61
15195;BME280;7698;42.478;23.756;2023-02-18T04:32:53;93958.66;;;4.11;63.45
15195;BME280;7698;42.478;23.756;2023-02-18T04:35:20;93964.41;;;4.14;63.47
15195;BME280;7698;42.478;23.756;2023-02-18T04:37:47;93964.66;;;4.19;63.45
15195;BME280;7698;42.478;23.756;2023-02-18T04:40:14;93968.22;;;4.26;63.28
15195;BME280;7698;42.478;23.756;2023-02-18T04:42:41;93968.31;;;4.33;62.80
15195;BME280;7698;42.478;23.756;2023-02-18T04:45:09;93973.84;;;4.38;62.89
15195;BME280;7698;42.478;23.756;2023-02-18T04:47:36;93958.44;;;4.41;62.34
15195;BME280;7698;42.478;23.756;2023-02-18T04:50:04;93958.44;;;4.41;62.00
15195;BME280;7698;42.478;23.756;2023-02-18T04:52:31;93967.38;;;4.40;62.14
15195;BME280;7698;42.478;23.756;2023-02-18T04:54:57;93955.16;;;4.39;62.13
15195;BME280;7698;42.478;23.756;2023-02-18T04:57:24;93947.41;;;4.38;62.45
15195;BME280;7698;42.478;23.756;2023-02-18T04:59:51;93948.22;;;4.38;62.65
15195;BME280;7698;42.478;23.756;2023-02-18T05:02:20;93947.63;;;4.36;62.74
15195;BME280;7698;42.478;23.756;2023-02-18T05:04:46;93945.97;;;4.35;62.96
15195;BME280;7698;42.478;23.756;2023-02-18T05:07:13;93947.63;;;4.36;62.92
15195;BME280;7698;42.478;23.756;2023-02-18T05:09:40;93958.59;;;4.40;62.78
15195;BME280;7698;42.478;23.756;2023-02-18T05:12:07;93959.06;;;4.43;62.58
15195;BME280;7698;42.478;23.756;2023-02-18T05:14:34;93963.53;;;4.43;62.59
15195;BME280;7698;42.478;23.756;2023-02-18T05:17:01;93972.53;;;4.49;62.54
15195;BME280;7698;42.478;23.756;2023-02-18T05:19:30;93956.13;;;4.53;62.11
15195;BME280;7698;42.478;23.756;2023-02-18T05:21:57;93954.31;;;4.54;62.04
15195;BME280;7698;42.478;23.756;2023-02-18T05:24:23;93961.22;;;4.55;62.17
15195;BME280;7698;42.478;23.756;2023-02-18T05:26:50;93954.94;;;4.56;62.35
15195;BME280;7698;42.478;23.756;2023-02-18T05:29:17;93958.03;;;4.59;61.94
15195;BME280;7698;42.478;23.756;2023-02-18T05:31:44;93962.94;;;4.62;62.13
15195;BME280;7698;42.478;23.756;2023-02-18T05:34:11;93960.13;;;4.64;62.03
15195;BME280;7698;42.478;23.756;2023-02-18T05:36:39;93956.47;;;4.65;62.19
15195;BME280;7698;42.478;23.756;2023-02-18T05:39:06;93974.59;;;4.68;62.13
15195;BME280;7698;42.478;23.756;2023-02-18T05:41:33;93976.47;;;4.74;61.98
15195;BME280;7698;42.478;23.756;2023-02-18T05:44:00;93977.38;;;4.81;61.79
15195;BME280;7698;42.478;23.756;2023-02-18T05:46:44;93980.56;;;4.91;61.77
15195;BME280;7698;42.478;23.756;2023-02-18T05:49:11;93979.41;;;5.00;61.22
15195;BME280;7698;42.478;23.756;2023-02-18T05:51:40;93973.16;;;5.08;60.85
15195;BME280;7698;42.478;23.756;2023-02-18T05:54:07;93980.53;;;5.13;60.37
15195;BME280;7698;42.478;23.756;2023-02-18T05:56:34;93980.97;;;5.16;60.26
15195;BME280;7698;42.478;23.756;2023-02-18T05:59:01;93983.03;;;5.21;60.36
15195;BME280;7698;42.478;23.756;2023-02-18T06:01:28;93978.63;;;5.28;60.57
15195;BME280;7698;42.478;23.756;2023-02-18T06:03:54;93981.97;;;5.36;60.04
15195;BME280;7698;42.478;23.756;2023-02-18T06:06:21;93970.25;;;5.46;60.37
15195;BME280;7698;42.478;23.756;2023-02-18T06:08:50;93983.56;;;5.59;59.78
15195;BME280;7698;42.478;23.756;2023-02-18T06:11:16;93977.56;;;5.71;59.70
15195;BME280;7698;42.478;23.756;2023-02-18T06:13:43;93981.63;;;6.02;59.99
15195;BME280;7698;42.478;23.756;2023-02-18T06:16:10;93984.09;;;6.44;58.78
15195;BME280;7698;42.478;23.756;2023-02-18T06:18:37;93984.44;;;6.76;57.15
15195;BME280;7698;42.478;23.756;2023-02-18T06:21:04;93983.03;;;6.93;56.36
15195;BME280;7698;42.478;23.756;2023-02-18T06:23:31;93978.38;;;7.15;56.35
15195;BME280;7698;42.478;23.756;2023-02-18T06:26:00;93982.09;;;7.34;55.27
15195;BME280;7698;42.478;23.756;2023-02-18T06:28:26;93977.19;;;7.37;54.72
15195;BME280;7698;42.478;23.756;2023-02-18T06:30:54;93986.19;;;7.30;54.96
15195;BME280;7698;42.478;23.756;2023-02-18T06:33:21;93981.88;;;7.22;55.04
15195;BME280;7698;42.478;23.756;2023-02-18T06:35:55;93983.28;;;7.18;55.06
15195;BME280;7698;42.478;23.756;2023-02-18T06:38:22;93974.72;;;7.23;55.03
15195;BME280;7698;42.478;23.756;2023-02-18T06:40:49;93967.59;;;7.36;55.17
15195;BME280;7698;42.478;23.756;2023-02-18T06:43:18;93976.38;;;7.57;55.04
15195;BME280;7698;42.478;23.756;2023-02-18T06:45:45;93977.97;;;7.97;54.36
15195;BME280;7698;42.478;23.756;2023-02-18T06:48:12;93976.47;;;8.28;53.54
15195;BME280;7698;42.478;23.756;2023-02-18T06:50:40;93977.03;;;8.56;52.56
15195;BME280;7698;42.478;23.756;2023-02-18T06:53:07;93979.50;;;9.02;51.87
15195;BME280;7698;42.478;23.756;2023-02-18T06:55:34;93988.13;;;9.85;50.49
15195;BME280;7698;42.478;23.756;2023-02-18T06:58:01;93989.13;;;10.71;48.20
15195;BME280;7698;42.478;23.756;2023-02-18T07:00:29;93985.66;;;11.90;47.24
15195;BME280;7698;42.478;23.756;2023-02-18T07:02:56;93991.13;;;13.29;44.40
15195;BME280;7698;42.478;23.756;2023-02-18T07:05:23;93980.72;;;13.61;41.56
15195;BME280;7698;42.478;23.756;2023-02-18T07:07:50;93984.97;;;13.16;40.31
15195;BME280;7698;42.478;23.756;2023-02-18T07:10:17;93975.91;;;12.42;40.50
15195;BME280;7698;42.478;23.756;2023-02-18T07:12:44;93973.28;;;11.77;42.06
15195;BME280;7698;42.478;23.756;2023-02-18T07:15:11;93967.22;;;11.29;43.30
15195;BME280;7698;42.478;23.756;2023-02-18T07:17:40;93969.06;;;10.98;43.97
15195;BME280;7698;42.478;23.756;2023-02-18T07:20:08;93961.31;;;10.78;44.11
15195;BME280;7698;42.478;23.756;2023-02-18T07:22:35;93965.69;;;10.73;45.55
15195;BME280;7698;42.478;23.756;2023-02-18T07:25:02;93963.47;;;10.70;45.54
15195;BME280;7698;42.478;23.756;2023-02-18T07:27:29;93966.81;;;10.83;46.54
15195;BME280;7698;42.478;23.756;2023-02-18T07:29:56;93957.78;;;10.96;45.89
15195;BME280;7698;42.478;23.756;2023-02-18T07:32:23;93951.41;;;10.97;45.17
15195;BME280;7698;42.478;23.756;2023-02-18T07:34:52;93942.69;;;10.90;45.01
15195;BME280;7698;42.478;23.756;2023-02-18T07:37:19;93950.41;;;10.80;44.10
15195;BME280;7698;42.478;23.756;2023-02-18T07:39:46;93946.72;;;10.63;44.94
15195;BME280;7698;42.478;23.756;2023-02-18T07:42:13;93944.13;;;10.56;45.03
15195;BME280;7698;42.478;23.756;2023-02-18T07:44:40;93945.78;;;10.57;45.52
15195;BME280;7698;42.478;23.756;2023-02-18T07:47:09;93934.88;;;10.59;45.29
15195;BME280;7698;42.478;23.756;2023-02-18T07:49:39;93947.19;;;10.60;45.05
15195;BME280;7698;42.478;23.756;2023-02-18T07:52:07;93945.31;;;10.60;45.10
15195;BME280;7698;42.478;23.756;2023-02-18T07:54:34;93939.94;;;10.78;45.55
15195;BME280;7698;42.478;23.756;2023-02-18T07:57:01;93940.56;;;11.10;44.57
15195;BME280;7698;42.478;23.756;2023-02-18T07:59:29;93946.34;;;11.49;45.41
15195;BME280;7698;42.478;23.756;2023-02-18T08:01:56;93942.94;;;11.83;44.21
15195;BME280;7698;42.478;23.756;2023-02-18T08:04:22;93935.28;;;12.22;43.79
15195;BME280;7698;42.478;23.756;2023-02-18T08:06:51;93943.72;;;12.66;43.25
15195;BME280;7698;42.478;23.756;2023-02-18T08:09:19;93939.81;;;13.13;42.22
15195;BME280;7698;42.478;23.756;2023-02-18T08:11:46;93951.56;;;13.36;41.37
15195;BME280;7698;42.478;23.756;2023-02-18T08:14:13;93956.94;;;13.36;40.63
15195;BME280;7698;42.478;23.756;2023-02-18T08:16:40;93950.22;;;13.21;40.65
15195;BME280;7698;42.478;23.756;2023-02-18T08:19:07;93938.91;;;13.19;40.87
15195;BME280;7698;42.478;23.756;2023-02-18T08:21:34;93947.97;;;13.30;41.09
15195;BME280;7698;42.478;23.756;2023-02-18T08:24:01;93953.09;;;13.32;40.20
15195;BME280;7698;42.478;23.756;2023-02-18T08:26:30;93960.88;;;13.05;39.81
15195;BME280;7698;42.478;23.756;2023-02-18T08:28:57;93961.66;;;12.65;40.54
15195;BME280;7698;42.478;23.756;2023-02-18T08:31:26;93951.84;;;12.82;41.53
15195;BME280;7698;42.478;23.756;2023-02-18T08:33:54;93951.63;;;13.41;41.18
15195;BME280;7698;42.478;23.756;2023-02-18T08:36:22;93955.09;;;14.03;40.10
15195;BME280;7698;42.478;23.756;2023-02-18T08:38:49;93953.03;;;14.61;39.69
15195;BME280;7698;42.478;23.756;2023-02-18T08:41:17;93954.09;;;15.25;38.79
15195;BME280;7698;42.478;23.756;2023-02-18T08:43:46;93948.00;;;15.83;37.59
15195;BME280;7698;42.478;23.756;2023-02-18T08:46:14;93950.69;;;16.20;36.45
15195;BME280;7698;42.478;23.756;2023-02-18T08:48:42;93945.97;;;16.75;36.04
15195;BME280;7698;42.478;23.756;2023-02-18T08:51:14;93948.88;;;17.25;34.81
15195;BME280;7698;42.478;23.756;2023-02-18T08:53:42;93952.22;;;17.63;34.24
15195;BME280;7698;42.478;23.756;2023-02-18T08:56:10;93946.91;;;18.09;34.02
15195;BME280;7698;42.478;23.756;2023-02-18T08:58:37;93956.09;;;18.64;33.72
15195;BME280;7698;42.478;23.756;2023-02-18T09:01:08;93956.00;;;18.99;32.56
15195;BME280;7698;42.478;23.756;2023-02-18T09:03:35;93960.22;;;19.31;32.30
15195;BME280;7698;42.478;23.756;2023-02-18T09:06:04;93955.78;;;19.50;31.60
15195;BME280;7698;42.478;23.756;2023-02-18T09:08:31;93958.88;;;19.28;31.32
15195;BME280;7698;42.478;23.756;2023-02-18T09:11:00;93957.88;;;19.09;31.94
15195;BME280;7698;42.478;23.756;2023-02-18T09:13:28;93956.56;;;18.91;32.00
15195;BME280;7698;42.478;23.756;2023-02-18T09:15:57;93962.56;;;18.57;31.60
15195;BME280;7698;42.478;23.756;2023-02-18T09:18:27;93961.50;;;17.98;31.75
15195;BME280;7698;42.478;23.756;2023-02-18T09:20:57;93947.78;;;17.26;32.57
15195;BME280;7698;42.478;23.756;2023-02-18T09:23:25;93953.81;;;16.81;34.05
15195;BME280;7698;42.478;23.756;2023-02-18T09:25:53;93958.47;;;16.54;33.93
15195;BME280;7698;42.478;23.756;2023-02-18T09:28:20;93950.41;;;16.17;33.84
15195;BME280;7698;42.478;23.756;2023-02-18T09:30:48;93955.53;;;15.86;35.02
15195;BME280;7698;42.478;23.756;2023-02-18T09:33:16;93955.34;;;15.66;35.43
15195;BME280;7698;42.478;23.756;2023-02-18T09:35:45;93958.53;;;15.58;35.71
15195;BME280;7698;42.478;23.756;2023-02-18T09:38:14;93952.59;;;15.61;36.19
15195;BME280;7698;42.478;23.756;2023-02-18T09:40:44;93946.84;;;15.52;35.75
15195;BME280;7698;42.478;23.756;2023-02-18T09:43:21;93949.69;;;15.41;36.00
15195;BME280;7698;42.478;23.756;2023-02-18T09:45:50;93945.19;;;15.73;37.10
15195;BME280;7698;42.478;23.756;2023-02-18T09:48:20;93951.22;;;16.17;36.58
15195;BME280;7698;42.478;23.756;2023-02-18T09:50:53;93947.88;;;16.42;36.20
15195;BME280;7698;42.478;23.756;2023-02-18T09:53:21;93929.56;;;16.44;35.01
15195;BME280;7698;42.478;23.756;2023-02-18T09:55:50;93931.69;;;16.37;34.86
15195;BME280;7698;42.478;23.756;2023-02-18T09:58:20;93921.44;;;16.34;35.68
15195;BME280;7698;42.478;23.756;2023-02-18T10:00:50;93924.63;;;16.68;35.86
15195;BME280;7698;42.478;23.756;2023-02-18T10:03:19;93928.28;;;16.94;35.44
15195;BME280;7698;42.478;23.756;2023-02-18T10:05:56;93915.41;;;17.16;34.52
15195;BME280;7698;42.478;23.756;2023-02-18T10:08:26;93918.72;;;17.49;34.60
15195;BME280;7698;42.478;23.756;2023-02-18T10:10:53;93923.91;;;17.66;33.80
15195;BME280;7698;42.478;23.756;2023-02-18T10:13:23;93913.91;;;17.66;33.96
15195;BME280;7698;42.478;23.756;2023-02-18T10:15:51;93923.41;;;17.94;34.26
15195;BME280;7698;42.478;23.756;2023-02-18T10:18:25;93920.72;;;18.04;33.34
15195;BME280;7698;42.478;23.756;2023-02-18T10:20:59;93921.22;;;18.32;33.30
15195;BME280;7698;42.478;23.756;2023-02-18T10:23:28;93920.91;;;18.58;33.18
15195;BME280;7698;42.478;23.756;2023-02-18T10:25:58;93921.97;;;18.83;32.50
15195;BME280;7698;42.478;23.756;2023-02-18T10:28:28;93911.59;;;19.10;32.65
15195;BME280;7698;42.478;23.756;2023-02-18T10:30:59;93913.25;;;19.01;31.93
15195;BME280;7698;42.478;23.756;2023-02-18T10:33:33;93902.53;;;18.50;31.73
15195;BME280;7698;42.478;23.756;2023-02-18T10:36:11;93905.28;;;18.15;32.53
15195;BME280;7698;42.478;23.756;2023-02-18T10:38:48;93902.88;;;17.93;32.92
15195;BME280;7698;42.478;23.756;2023-02-18T10:41:26;93892.59;;;17.85;33.71
15195;BME280;7698;42.478;23.756;2023-02-18T10:44:04;93895.56;;;18.04;33.42
15195;BME280;7698;42.478;23.756;2023-02-18T10:46:41;93885.28;;;17.65;32.78
15195;BME280;7698;42.478;23.756;2023-02-18T10:49:30;93880.34;;;17.21;33.79
15195;BME280;7698;42.478;23.756;2023-02-18T10:52:07;93885.59;;;16.81;33.86
15195;BME280;7698;42.478;23.756;2023-02-18T10:54:57;93893.53;;;16.55;35.03
15195;BME280;7698;42.478;23.756;2023-02-18T10:57:25;93892.91;;;16.38;35.19
15195;BME280;7698;42.478;23.756;2023-02-18T10:59:58;93895.56;;;16.33;35.47
15195;BME280;7698;42.478;23.756;2023-02-18T11:02:28;93891.34;;;16.52;35.52
15195;BME280;7698;42.478;23.756;2023-02-18T11:04:57;93878.50;;;16.70;35.96
15195;BME280;7698;42.478;23.756;2023-02-18T11:07:30;93880.69;;;16.73;35.02
15195;BME280;7698;42.478;23.756;2023-02-18T11:10:00;93877.06;;;17.09;35.88
15195;BME280;7698;42.478;23.756;2023-02-18T11:12:30;93873.41;;;17.81;35.12
15195;BME280;7698;42.478;23.756;2023-02-18T11:15:14;93871.38;;;18.83;34.60
15195;BME280;7698;42.478;23.756;2023-02-18T11:17:43;93872.44;;;19.86;33.88
15195;BME280;7698;42.478;23.756;2023-02-18T11:20:28;93872.47;;;20.73;31.90
15195;BME280;7698;42.478;23.756;2023-02-18T11:23:14;93868.97;;;20.91;30.72
15195;BME280;7698;42.478;23.756;2023-02-18T11:25:53;93871.81;;;20.81;30.50
15195;BME280;7698;42.478;23.756;2023-02-18T11:28:27;93860.25;;;20.94;30.24
15195;BME280;7698;42.478;23.756;2023-02-18T11:30:58;93858.41;;;20.66;29.67
15195;BME280;7698;42.478;23.756;2023-02-18T11:33:32;93866.34;;;20.28;30.13
15195;BME280;7698;42.478;23.756;2023-02-18T11:36:04;93860.59;;;19.72;30.43
15195;BME280;7698;42.478;23.756;2023-02-18T11:38:44;93852.75;;;19.70;31.64
15195;BME280;7698;42.478;23.756;2023-02-18T11:41:15;93854.66;;;20.04;31.89
15195;BME280;7698;42.478;23.756;2023-02-18T11:43:46;93842.94;;;19.79;30.69
15195;BME280;7698;42.478;23.756;2023-02-18T11:46:16;93839.34;;;19.45;31.15
15195;BME280;7698;42.478;23.756;2023-02-18T11:48:44;93839.19;;;19.70;31.88
15195;BME280;7698;42.478;23.756;2023-02-18T11:51:16;93836.38;;;19.85;31.23
15195;BME280;7698;42.478;23.756;2023-02-18T11:53:57;93836.56;;;19.65;31.03
15195;BME280;7698;42.478;23.756;2023-02-18T11:56:26;93835.91;;;19.78;31.82
15195;BME280;7698;42.478;23.756;2023-02-18T11:58:54;93834.97;;;20.22;31.63
15195;BME280;7698;42.478;23.756;2023-02-18T12:01:30;93821.50;;;20.88;31.36
15195;BME280;7698;42.478;23.756;2023-02-18T12:04:09;93814.19;;;21.50;30.37
15195;BME280;7698;42.478;23.756;2023-02-18T12:06:44;93819.09;;;22.00;29.57
15195;BME280;7698;42.478;23.756;2023-02-18T12:09:22;93813.75;;;22.27;28.58
15195;BME280;7698;42.478;23.756;2023-02-18T12:11:54;93811.66;;;22.38;28.38
15195;BME280;7698;42.478;23.756;2023-02-18T12:14:23;93812.84;;;22.32;28.17
15195;BME280;7698;42.478;23.756;2023-02-18T12:17:11;93812.63;;;21.95;27.82
15195;BME280;7698;42.478;23.756;2023-02-18T12:20:02;93812.28;;;21.08;28.58
15195;BME280;7698;42.478;23.756;2023-02-18T12:22:41;93800.03;;;20.68;29.42
15195;BME280;7698;42.478;23.756;2023-02-18T12:25:33;93798.09;;;20.74;30.03
15195;BME280;7698;42.478;23.756;2023-02-18T12:28:14;93792.44;;;20.89;29.53
15195;BME280;7698;42.478;23.756;2023-02-18T12:30:58;93793.22;;;21.13;29.78
15195;BME280;7698;42.478;23.756;2023-02-18T12:33:40;93790.97;;;21.39;28.91
15195;BME280;7698;42.478;23.756;2023-02-18T12:36:16;93799.50;;;21.09;28.36
15195;BME280;7698;42.478;23.756;2023-02-18T12:39:11;93798.50;;;20.38;29.04
15195;BME280;7698;42.478;23.756;2023-02-18T12:42:02;93788.06;;;20.21;30.18
15195;BME280;7698;42.478;23.756;2023-02-18T12:44:38;93779.50;;;20.38;30.00
15195;BME280;7698;42.478;23.756;2023-02-18T12:47:29;93775.38;;;20.17;29.75
15195;BME280;7698;42.478;23.756;2023-02-18T12:50:36;93775.63;;;19.91;29.96
15195;BME280;7698;42.478;23.756;2023-02-18T12:53:26;93769.19;;;19.53;30.10
15195;BME280;7698;42.478;23.756;2023-02-18T12:56:11;93766.78;;;19.08;30.80
15195;BME280;7698;42.478;23.756;2023-02-18T12:58:53;93761.94;;;18.45;31.02
15195;BME280;7698;42.478;23.756;2023-02-18T13:01:34;93761.41;;;18.33;32.14
15195;BME280;7698;42.478;23.756;2023-02-18T13:04:21;93764.53;;;18.71;32.65
15195;BME280;7698;42.478;23.756;2023-02-18T13:09:51;93758.63;;;18.64;32.46
15195;BME280;7698;42.478;23.756;2023-02-18T13:12:28;93761.16;;;18.94;32.52
15195;BME280;7698;42.478;23.756;2023-02-18T13:15:01;93763.16;;;19.22;31.74
15195;BME280;7698;42.478;23.756;2023-02-18T13:17:32;93757.50;;;19.58;31.67
15195;BME280;7698;42.478;23.756;2023-02-18T13:20:04;93749.63;;;19.90;31.39
15195;BME280;7698;42.478;23.756;2023-02-18T13:22:35;93752.91;;;20.11;31.25
15195;BME280;7698;42.478;23.756;2023-02-18T13:25:05;93752.81;;;20.21;30.93
15195;BME280;7698;42.478;23.756;2023-02-18T13:27:42;93747.84;;;20.28;30.54
15195;BME280;7698;42.478;23.756;2023-02-18T13:30:20;93752.69;;;20.32;30.70